Time;durP1;ratioP1;P1;durP2;ratioP2;P2;SDS_P1;SDS_P2;PMS_P1;PMS_P2;Temp;Humidity;BMP_temperature;BMP_pressure;BME280_temperature;BME280_humidity;BME280_pressure;Samples;Min_cycle;Max_cycle;Signal;HPM_P1;HPM_P2
2021/04/25 00:02:08;;;;;;;15.57;11.20;;;;;;;17.42;31.55;94688.88;5017144;28;20046;-45
2021/04/25 00:04:37;;;;;;;15.88;11.38;;;;;;;17.01;32.16;94690.34;5017009;28;20046;-45
2021/04/25 00:07:05;;;;;;;19.05;11.27;;;;;;;17.23;31.69;94690.09;5017078;28;20050;-44
2021/04/25 00:09:32;;;;;;;17.02;11.63;;;;;;;17.27;31.76;94693.63;5016856;28;20052;-44
2021/04/25 00:12:00;;;;;;;16.55;11.25;;;;;;;17.08;31.90;94676.63;5017123;28;20050;-45
2021/04/25 00:14:28;;;;;;;15.50;11.27;;;;;;;17.37;31.57;94681.13;5016285;28;20367;-44
2021/04/25 00:16:56;;;;;;;17.92;12.40;;;;;;;17.15;31.58;94680.31;5016934;28;20054;-46
2021/04/25 00:19:23;;;;;;;17.58;12.45;;;;;;;17.03;31.73;94682.88;5016943;28;20065;-44
2021/04/25 00:21:51;;;;;;;20.52;13.55;;;;;;;17.16;31.86;94679.22;5016860;28;20058;-45
2021/04/25 00:24:18;;;;;;;22.92;13.50;;;;;;;17.48;30.98;94667.22;5015927;28;20056;-44
2021/04/25 00:26:45;;;;;;;20.27;13.32;;;;;;;17.02;32.13;94675.28;5016320;28;20057;-46
2021/04/25 00:29:12;;;;;;;18.02;13.55;;;;;;;17.29;31.59;94679.31;5018971;28;20068;-46
2021/04/25 00:31:39;;;;;;;24.42;14.25;;;;;;;17.47;31.19;94678.13;5035904;28;20053;-45
2021/04/25 00:34:07;;;;;;;19.33;12.27;;;;;;;16.97;32.05;94672.81;5036526;28;20701;-45
2021/04/25 00:36:34;;;;;;;22.67;11.77;;;;;;;17.72;30.51;94679.84;5036205;28;20056;-46
2021/04/25 00:39:03;;;;;;;22.65;12.18;;;;;;;17.12;31.56;94677.53;5036355;28;20381;-45
2021/04/25 00:41:31;;;;;;;18.40;11.82;;;;;;;17.44;30.86;94682.19;5035961;28;20471;-45
2021/04/25 00:44:12;;;;;;;21.15;12.20;;;;;;;18.05;30.74;94677.22;5036118;28;20052;-45
2021/04/25 00:46:41;;;;;;;20.85;12.60;;;;;;;21.05;26.08;94679.56;5026262;28;20058;-46
2021/04/25 00:49:08;;;;;;;21.60;12.90;;;;;;;17.38;30.98;94683.44;5016351;28;20046;-44
2021/04/25 00:51:41;;;;;;;20.35;12.70;;;;;;;18.24;29.63;94676.75;5016116;28;20046;-46
2021/04/25 00:54:08;;;;;;;19.73;12.85;;;;;;;17.03;31.52;94677.59;4998695;28;20041;-45
2021/04/25 00:56:35;;;;;;;22.25;12.63;;;;;;;16.86;31.63;94675.03;4999158;28;20046;-45
2021/04/25 00:59:03;;;;;;;22.77;12.88;;;;;;;17.44;30.80;94678.78;5000006;28;20046;-46
2021/04/25 01:01:30;;;;;;;17.15;12.10;;;;;;;17.42;31.01;94678.28;5029457;28;20056;-47
2021/04/25 01:03:57;;;;;;;20.92;12.32;;;;;;;18.09;29.40;94683.41;5016073;28;20054;-45
2021/04/25 01:06:24;;;;;;;18.88;12.23;;;;;;;16.68;31.98;94681.50;4998580;28;20060;-45
2021/04/25 01:08:51;;;;;;;21.00;13.05;;;;;;;17.39;30.99;94679.72;5016021;28;20050;-45
2021/04/25 01:11:19;;;;;;;19.75;12.85;;;;;;;16.71;31.87;94680.84;5015733;28;20037;-44
2021/04/25 01:13:50;;;;;;;17.00;12.38;;;;;;;16.67;31.95;94682.59;4998660;28;20053;-45
2021/04/25 01:16:18;;;;;;;19.63;11.77;;;;;;;16.61;32.23;94681.94;5015579;28;20065;-45
2021/04/25 01:18:45;;;;;;;18.05;12.65;;;;;;;16.51;32.10;94679.66;5015757;28;20065;-46
2021/04/25 01:21:12;;;;;;;19.20;13.68;;;;;;;16.69;31.66;94673.25;5015497;28;20471;-46
2021/04/25 01:23:39;;;;;;;19.73;14.00;;;;;;;17.34;30.96;94687.06;5015775;28;20038;-44
2021/04/25 01:26:07;;;;;;;23.52;15.55;;;;;;;16.26;32.47;94676.75;5015542;28;20042;-47
2021/04/25 01:28:34;;;;;;;32.17;17.83;;;;;;;16.30;32.27;94676.91;5015802;28;20371;-45
2021/04/25 01:31:01;;;;;;;31.40;18.45;;;;;;;16.77;31.45;94685.63;5032714;28;20055;-45
2021/04/25 01:33:29;;;;;;;30.73;18.63;;;;;;;16.50;32.09;94675.47;5035354;28;20045;-44
2021/04/25 01:35:56;;;;;;;25.08;16.50;;;;;;;16.41;32.01;94674.72;5035210;28;20049;-44
2021/04/25 01:38:23;;;;;;;24.80;15.20;;;;;;;16.35;32.47;94674.09;5035186;28;20467;-45
2021/04/25 01:40:50;;;;;;;22.50;13.88;;;;;;;17.03;31.13;94671.53;5035325;28;20060;-45
2021/04/25 01:43:17;;;;;;;20.15;12.82;;;;;;;16.72;31.91;94677.13;5035074;28;20045;-45
2021/04/25 01:45:44;;;;;;;19.02;12.50;;;;;;;16.75;31.65;94679.91;5035018;28;20045;-45
2021/04/25 01:48:11;;;;;;;17.95;12.90;;;;;;;16.75;31.50;94671.22;5035167;28;20376;-44
2021/04/25 01:50:39;;;;;;;17.95;12.48;;;;;;;16.04;32.40;94667.16;5035194;28;20401;-44
2021/04/25 01:53:07;;;;;;;22.73;11.60;;;;;;;16.74;31.49;94675.72;5024712;28;20049;-46
2021/04/25 01:55:36;;;;;;;18.50;11.77;;;;;;;16.76;31.70;94662.19;5015217;28;20065;-45
2021/04/25 01:58:05;;;;;;;20.50;12.98;;;;;;;16.32;32.07;94669.44;5015319;28;20060;-44
2021/04/25 02:00:39;;;;;;;21.85;12.20;;;;;;;16.57;31.68;94663.31;5028754;28;20052;-45
2021/04/25 02:03:07;;;;;;;25.30;13.63;;;;;;;16.65;31.17;94667.00;5017397;28;20050;-45
2021/04/25 02:05:35;;;;;;;24.20;13.75;;;;;;;16.03;32.32;94657.72;5016758;28;20050;-45
2021/04/25 02:08:03;;;;;;;23.88;14.27;;;;;;;17.13;30.51;94650.81;5019332;28;20045;-45
2021/04/25 02:10:30;;;;;;;28.00;15.35;;;;;;;16.49;31.62;94661.50;5019282;28;20054;-44
2021/04/25 02:12:58;;;;;;;25.40;15.95;;;;;;;16.45;31.64;94657.94;5019118;28;20360;-45
2021/04/25 02:15:25;;;;;;;27.13;15.93;;;;;;;15.79;32.96;94654.78;5018862;28;20449;-46
2021/04/25 02:17:53;;;;;;;28.90;16.95;;;;;;;16.30;31.89;94651.28;5018838;28;20054;-45
2021/04/25 02:20:21;;;;;;;24.83;15.70;;;;;;;16.27;32.19;94651.94;5019321;28;20057;-44
2021/04/25 02:22:48;;;;;;;25.05;15.00;;;;;;;15.90;32.57;94652.63;5018763;28;20049;-44
2021/04/25 02:25:17;;;;;;;25.58;14.88;;;;;;;16.51;31.58;94651.38;5018775;28;20045;-45
2021/04/25 02:27:45;;;;;;;25.45;14.45;;;;;;;15.69;32.71;94652.47;5018962;28;20049;-46
2021/04/25 02:30:16;;;;;;;22.02;13.43;;;;;;;16.01;32.05;94649.34;5029380;28;20049;-45
2021/04/25 02:32:43;;;;;;;24.15;14.00;;;;;;;15.85;32.60;94645.63;5038457;28;20045;-45
2021/04/25 02:35:11;;;;;;;20.50;13.15;;;;;;;15.82;32.60;94643.63;5038447;28;20049;-44
2021/04/25 02:37:39;;;;;;;19.55;11.77;;;;;;;15.51;33.27;94635.84;5038571;28;20440;-45
2021/04/25 02:40:12;;;;;;;16.80;11.70;;;;;;;15.92;32.30;94634.63;5021108;28;20049;-45
2021/04/25 02:42:40;;;;;;;;;;;;;;;16.56;31.62;94632.75;5038667;28;20049;-46
2021/04/25 02:45:07;;;;;;;19.25;11.55;;;;;;;16.63;31.27;94633.00;5038187;28;19913;-46
2021/04/25 02:47:34;;;;;;;17.73;11.02;;;;;;;16.07;32.22;94630.72;5038395;28;20053;-45
2021/04/25 02:50:01;;;;;;;18.88;11.30;;;;;;;16.07;32.21;94630.72;5038382;28;20052;-46
2021/04/25 02:52:29;;;;;;;21.52;11.40;;;;;;;15.75;32.73;94630.16;5037903;28;20041;-44
2021/04/25 02:54:56;;;;;;;17.42;10.55;;;;;;;16.35;31.71;94622.09;5038141;28;20356;-46
2021/04/25 02:57:23;;;;;;;26.33;12.48;;;;;;;15.87;32.58;94622.38;5038085;28;20052;-46
2021/04/25 02:59:50;;;;;;;20.85;12.27;;;;;;;16.30;32.15;94626.78;5037814;28;20053;-44
2021/04/25 03:02:17;;;;;;;19.83;11.38;;;;;;;15.90;32.55;94619.13;5028732;28;20050;-45
2021/04/25 03:04:44;;;;;;;18.33;11.55;;;;;;;15.79;32.71;94620.53;5018331;28;20502;-45
2021/04/25 03:07:11;;;;;;;26.02;11.68;;;;;;;15.93;32.55;94629.03;5018239;28;20080;-46
2021/04/25 03:09:38;;;;;;;20.00;11.65;;;;;;;16.14;32.09;94625.75;5018196;28;20049;-46
2021/04/25 03:12:06;;;;;;;18.13;11.93;;;;;;;15.54;33.13;94629.19;5017890;28;20050;-46
2021/04/25 03:14:33;;;;;;;20.15;12.07;;;;;;;15.79;32.64;94640.84;5018087;28;20053;-45
2021/04/25 03:17:00;;;;;;;20.17;11.88;;;;;;;15.72;32.83;94636.03;5017799;28;20058;-46
2021/04/25 03:19:27;;;;;;;20.63;11.93;;;;;;;15.61;33.13;94640.06;5018256;28;20368;-45
2021/04/25 03:21:54;;;;;;;20.67;13.38;;;;;;;15.37;33.91;94643.94;5017663;28;20072;-46
2021/04/25 03:24:22;;;;;;;24.95;14.52;;;;;;;16.12;32.04;94639.22;5017786;28;20448;-44
2021/04/25 03:26:49;;;;;;;19.00;12.85;;;;;;;15.97;32.40;94643.16;5017691;28;20049;-45
2021/04/25 03:29:16;;;;;;;24.15;13.45;;;;;;;15.72;32.72;94643.94;5020872;28;20053;-45
2021/04/25 03:31:43;;;;;;;22.90;13.15;;;;;;;16.10;31.96;94638.00;5037365;28;20053;-45
2021/04/25 03:34:10;;;;;;;24.10;13.20;;;;;;;15.60;32.80;94636.66;5037543;28;20045;-45
2021/04/25 03:36:37;;;;;;;23.88;13.60;;;;;;;16.36;31.38;94649.25;5037432;28;20057;-46
2021/04/25 03:39:06;;;;;;;21.48;13.85;;;;;;;15.64;32.72;94642.09;5037426;28;20383;-47
2021/04/25 03:41:33;;;;;;;26.63;14.45;;;;;;;16.11;32.28;94647.44;5037193;28;20053;-46
2021/04/25 03:44:01;;;;;;;26.40;14.80;;;;;;;16.87;30.80;94642.25;5037290;28;20056;-46
2021/04/25 03:46:28;;;;;;;25.48;14.90;;;;;;;15.68;32.67;94637.75;5037014;28;20071;-45
2021/04/25 03:48:56;;;;;;;27.70;15.13;;;;;;;16.16;32.00;94644.66;5037281;28;20060;-46
2021/04/25 03:51:23;;;;;;;27.33;15.23;;;;;;;15.74;33.04;94644.41;5019657;28;20049;-45
2021/04/25 03:53:50;;;;;;;24.98;14.98;;;;;;;15.94;32.17;94643.78;5037122;28;20057;-44
2021/04/25 03:56:18;;;;;;;27.05;15.32;;;;;;;16.02;32.63;94640.34;5036931;28;20069;-45
2021/04/25 03:58:45;;;;;;;24.25;15.43;;;;;;;15.64;33.27;94644.75;5037147;28;20060;-46
2021/04/25 04:01:12;;;;;;;24.08;15.35;;;;;;;15.60;32.95;94649.81;5036745;28;20053;-45
2021/04/25 04:03:39;;;;;;;24.30;15.35;;;;;;;15.52;33.50;94647.94;5018494;28;20478;-45
2021/04/25 04:06:06;;;;;;;29.60;15.27;;;;;;;15.92;32.91;94651.22;5015995;28;20056;-45
2021/04/25 04:08:33;;;;;;;22.75;14.52;;;;;;;15.78;33.01;94650.59;5017184;28;20046;-45
2021/04/25 04:11:00;;;;;;;24.67;14.77;;;;;;;16.21;32.39;94644.50;5017102;28;20057;-44
2021/04/25 04:13:27;;;;;;;26.30;16.35;;;;;;;16.11;32.84;94647.44;5016772;28;20053;-45
2021/04/25 04:15:55;;;;;;;23.67;15.18;;;;;;;15.91;33.28;94657.59;5016745;28;20054;-46
2021/04/25 04:18:22;;;;;;;22.73;15.57;;;;;;;16.16;32.90;94655.22;5017118;28;20084;-45
2021/04/25 04:20:49;;;;;;;24.42;14.90;;;;;;;16.10;33.02;94661.72;5015859;28;20122;-46
2021/04/25 04:23:16;;;;;;;24.55;15.77;;;;;;;16.45;32.30;94668.50;5016538;28;20522;-47
2021/04/25 04:25:43;;;;;;;23.77;15.00;;;;;;;16.18;32.68;94667.00;5016606;28;20068;-45
2021/04/25 04:28:10;;;;;;;25.05;15.07;;;;;;;16.66;32.04;94673.88;5016021;28;20053;-44
2021/04/25 04:30:37;;;;;;;23.17;14.35;;;;;;;16.15;32.80;94680.06;5030688;28;20376;-46
2021/04/25 04:33:04;;;;;;;20.48;12.63;;;;;;;16.18;32.60;94671.50;5036208;28;20053;-45
2021/04/25 04:35:32;;;;;;;17.50;11.48;;;;;;;16.57;31.48;94675.75;5036152;28;20345;-46
2021/04/25 04:37:59;;;;;;;17.42;12.07;;;;;;;16.84;31.37;94671.94;5031823;28;20049;-45
2021/04/25 04:40:27;;;;;;;22.25;14.25;;;;;;;16.70;31.57;94679.31;5015797;28;20052;-45
2021/04/25 04:42:54;;;;;;;20.60;11.85;;;;;;;16.27;32.07;94677.53;5016191;28;20468;-48
2021/04/25 04:45:21;;;;;;;19.83;12.50;;;;;;;16.78;31.67;94681.13;5016358;28;20471;-45
2021/04/25 04:47:48;;;;;;;16.95;11.20;;;;;;;17.15;31.03;94675.03;5016349;28;20054;-46
2021/04/25 04:50:17;;;;;;;18.13;11.13;;;;;;;17.19;30.47;94680.47;5016288;28;20045;-45
2021/04/25 04:52:46;;;;;;;14.98;9.30;;;;;;;17.38;30.26;94680.03;5016053;28;20079;-45
2021/04/25 04:55:15;;;;;;;15.07;9.50;;;;;;;18.03;29.61;94681.28;5016041;28;20049;-46
2021/04/25 04:57:43;;;;;;;15.57;9.40;;;;;;;17.45;30.28;94686.38;5016267;28;20057;-46
2021/04/25 05:00:11;;;;;;;16.10;9.63;;;;;;;18.05;29.50;94687.03;5026489;28;20045;-45
2021/04/25 05:02:38;;;;;;;16.75;9.27;;;;;;;17.81;29.52;94691.13;5035776;28;20060;-45
2021/04/25 05:05:07;;;;;;;15.35;9.57;;;;;;;18.37;28.55;94686.25;5031217;28;20487;-46
2021/04/25 05:07:34;;;;;;;13.70;9.68;;;;;;;18.95;27.80;94681.72;5016195;28;20050;-46
2021/04/25 05:10:02;;;;;;;17.05;9.68;;;;;;;18.64;28.95;94686.78;5016061;28;20050;-45
2021/04/25 05:12:29;;;;;;;18.35;10.18;;;;;;;18.42;28.69;94688.69;5015710;28;20045;-44
2021/04/25 05:14:57;;;;;;;15.48;9.40;;;;;;;18.47;28.84;94685.81;5015457;28;20069;-46
2021/04/25 05:17:24;;;;;;;14.82;9.48;;;;;;;18.33;28.98;94687.22;4998716;28;20069;-47
2021/04/25 05:19:51;;;;;;;15.30;9.15;;;;;;;18.49;28.86;94696.88;5015921;28;20053;-45
2021/04/25 05:22:18;;;;;;;14.73;9.07;;;;;;;19.00;28.04;94692.13;5015469;28;20053;-45
2021/04/25 05:24:45;;;;;;;19.15;11.07;;;;;;;18.68;28.33;94690.31;5015760;28;20061;-45
2021/04/25 05:27:13;;;;;;;16.58;11.57;;;;;;;19.51;27.30;94697.81;5015706;28;20054;-45
2021/04/25 05:29:40;;;;;;;20.25;12.82;;;;;;;19.74;27.06;94686.75;5021970;28;20056;-45
2021/04/25 05:32:07;;;;;;;19.33;12.73;;;;;;;18.99;27.53;94693.19;5019035;28;20056;-46
2021/04/25 05:34:35;;;;;;;20.67;11.55;;;;;;;19.77;26.95;94696.69;5015620;28;20045;-46
2021/04/25 05:37:02;;;;;;;18.60;10.80;;;;;;;20.50;26.18;94688.44;5015527;28;20084;-44
2021/04/25 05:39:29;;;;;;;17.83;11.82;;;;;;;20.61;25.58;94692.16;5013911;28;20429;-45
2021/04/25 05:41:56;;;;;;;20.75;10.77;;;;;;;19.97;26.58;94690.44;5015209;28;20057;-45
2021/04/25 05:44:27;;;;;;;16.75;11.00;;;;;;;19.89;26.45;94688.69;5015462;28;20103;-46
2021/04/25 05:46:55;;;;;;;14.98;9.90;;;;;;;20.85;25.40;94689.34;5015212;28;20046;-45
2021/04/25 05:49:22;;;;;;;14.15;9.30;;;;;;;20.64;25.15;94691.47;5015432;28;20065;-46
2021/04/25 05:51:50;;;;;;;13.38;7.95;;;;;;;21.35;24.83;94692.44;5015333;28;20046;-47
2021/04/25 05:54:17;;;;;;;13.95;8.38;;;;;;;21.43;24.72;94688.81;5015315;28;20057;-45
2021/04/25 05:56:44;;;;;;;16.05;8.68;;;;;;;20.38;26.27;94693.81;5015149;28;20049;-45
2021/04/25 05:59:11;;;;;;;14.15;8.80;;;;;;;21.41;24.54;94691.81;5017647;28;20057;-45
2021/04/25 06:01:38;;;;;;;13.60;8.48;;;;;;;21.42;25.51;94695.25;5035128;28;20053;-45
2021/04/25 06:04:06;;;;;;;12.48;9.38;;;;;;;22.48;23.45;94693.97;5016860;28;20064;-46
2021/04/25 06:06:33;;;;;;;15.50;9.27;;;;;;;21.80;24.80;94697.19;5015172;28;20076;-46
2021/04/25 06:09:01;;;;;;;17.25;10.02;;;;;;;21.62;24.84;94690.75;5015297;28;20046;-45
2021/04/25 06:11:28;;;;;;;12.10;8.80;;;;;;;22.12;23.95;94688.00;5015228;28;20049;-47
2021/04/25 06:13:55;;;;;;;11.23;8.50;;;;;;;22.25;23.74;94696.59;5015056;28;20080;-45
2021/04/25 06:16:22;;;;;;;13.32;8.98;;;;;;;21.88;24.86;94687.47;5014422;28;20058;-47
2021/04/25 06:18:49;;;;;;;11.60;7.95;;;;;;;22.24;23.95;94678.31;5015254;28;20460;-46
2021/04/25 06:21:16;;;;;;;13.73;8.02;;;;;;;21.44;24.32;94685.81;5015037;28;20057;-46
2021/04/25 06:23:43;;;;;;;13.20;7.70;;;;;;;22.46;23.68;94683.69;5014879;28;20041;-45
2021/04/25 06:26:11;;;;;;;11.50;7.57;;;;;;;22.48;23.90;94677.22;5014942;28;20038;-45
2021/04/25 06:28:38;;;;;;;9.68;7.28;;;;;;;22.41;24.43;94678.66;5015232;28;20046;-46
2021/04/25 06:31:07;;;;;;;11.10;7.43;;;;;;;22.67;23.91;94675.28;5033263;28;20053;-48
2021/04/25 06:33:34;;;;;;;12.30;8.13;;;;;;;23.62;22.75;94666.47;5021710;28;20489;-46
2021/04/25 06:36:01;;;;;;;13.43;8.43;;;;;;;23.03;22.97;94674.00;5014771;28;20053;-47
2021/04/25 06:38:28;;;;;;;14.38;8.45;;;;;;;23.44;23.15;94678.81;5014036;28;20050;-46
2021/04/25 06:40:56;;;;;;;13.68;9.10;;;;;;;23.34;22.72;94670.25;5015045;28;20049;-46
2021/04/25 06:43:23;;;;;;;11.23;8.15;;;;;;;23.97;22.64;94666.94;5014731;28;20053;-45
2021/04/25 06:45:50;;;;;;;14.85;9.32;;;;;;;23.84;22.53;94659.53;5014931;28;20049;-45
2021/04/25 06:48:17;;;;;;;12.07;8.35;;;;;;;24.35;22.21;94662.41;5014846;28;20050;-47
2021/04/25 06:50:44;;;;;;;15.00;8.40;;;;;;;24.01;21.89;94663.53;5015096;28;20464;-46
2021/04/25 06:53:12;;;;;;;13.77;8.20;;;;;;;24.17;21.99;94656.06;5018278;28;20061;-45
2021/04/25 06:55:39;;;;;;;12.65;8.23;;;;;;;24.33;21.74;94647.88;5018184;28;20460;-46
2021/04/25 06:58:06;;;;;;;11.73;8.32;;;;;;;25.07;21.02;94648.56;5018259;28;20046;-46
2021/04/25 07:00:33;;;;;;;12.80;7.97;;;;;;;24.54;20.98;94637.41;5031648;28;20045;-46
2021/04/25 07:03:04;;;;;;;13.43;7.85;;;;;;;24.41;21.00;94636.91;5029957;28;20100;-48
2021/04/25 07:05:32;;;;;;;11.93;7.78;;;;;;;24.35;20.80;94641.03;5018165;28;20045;-47
2021/04/25 07:07:59;;;;;;;10.35;7.43;;;;;;;25.06;20.49;94639.00;5018310;28;20049;-46
2021/04/25 07:10:26;;;;;;;11.80;7.80;;;;;;;24.77;20.83;94646.03;5018161;28;20068;-46
2021/04/25 07:12:55;;;;;;;13.48;8.27;;;;;;;24.65;20.93;94630.25;5017994;28;20056;-45
2021/04/25 07:15:22;;;;;;;9.90;7.35;;;;;;;25.16;20.64;94638.31;5017719;28;20056;-46
2021/04/25 07:17:49;;;;;;;9.10;6.63;;;;;;;25.50;19.99;94628.22;5018062;28;20058;-46
2021/04/25 07:20:18;;;;;;;7.28;5.60;;;;;;;25.19;18.97;94632.22;5017973;28;20380;-46
2021/04/25 07:22:45;;;;;;;11.20;5.90;;;;;;;25.85;18.35;94631.44;5017733;28;20053;-47
2021/04/25 07:25:13;;;;;;;7.82;5.50;;;;;;;25.64;18.50;94630.19;5017817;28;20041;-49
2021/04/25 07:27:40;;;;;;;8.93;6.03;;;;;;;25.86;18.85;94628.41;5017941;28;20453;-48
2021/04/25 07:30:09;;;;;;;9.32;5.70;;;;;;;26.82;16.86;94622.50;5027665;28;20455;-46
2021/04/25 07:32:36;;;;;;;7.20;4.68;;;;;;;25.19;17.93;94624.19;5037367;28;20064;-46
2021/04/25 07:35:09;;;;;;;11.13;5.93;;;;;;;25.64;18.60;94622.16;5037305;28;20068;-46
2021/04/25 07:37:40;;;;;;;8.10;5.55;;;;;;;25.98;18.04;94625.38;5037469;28;20471;-47
2021/04/25 07:40:08;;;;;;;9.82;5.38;;;;;;;25.96;17.49;94626.88;5037326;28;20045;-48
2021/04/25 07:42:37;;;;;;;7.20;5.43;;;;;;;26.36;17.44;94623.97;5029155;28;20061;-44
2021/04/25 07:45:09;;;;;;;8.13;4.85;;;;;;;26.50;17.68;94614.41;5017453;28;20060;-47
2021/04/25 07:47:36;;;;;;;8.98;4.28;;;;;;;26.61;17.10;94618.66;5017523;28;20053;-46
2021/04/25 07:50:04;;;;;;;8.52;5.10;;;;;;;26.98;17.19;94617.50;5017443;28;20372;-49
2021/04/25 07:52:31;;;;;;;8.57;4.60;;;;;;;27.08;16.80;94613.31;5017181;28;20041;-46
2021/04/25 07:54:58;;;;;;;9.10;5.60;;;;;;;26.89;16.86;94601.78;5017063;28;20356;-47
2021/04/25 07:57:25;;;;;;;8.43;5.35;;;;;;;27.16;17.40;94606.78;5017351;28;20053;-46
2021/04/25 07:59:52;;;;;;;7.70;5.57;;;;;;;27.52;16.79;94604.78;5025211;28;20052;-46
2021/04/25 08:02:22;;;;;;;9.88;5.65;;;;;;;27.01;16.87;94614.06;5036266;28;20371;-46
2021/04/25 08:04:52;;;;;;;11.48;5.05;;;;;;;27.25;17.13;94615.19;5020522;28;20049;-58
2021/04/25 08:07:19;;;;;;;21.02;5.63;;;;;;;29.43;16.27;94608.19;5016187;28;20042;-48
2021/04/25 08:09:46;;;;;;;12.32;5.50;;;;;;;30.51;15.33;94605.75;5021509;28;20053;-47
2021/04/25 08:12:14;;;;;;;9.88;5.32;;;;;;;29.27;15.10;94605.28;5016991;28;20487;-51
2021/04/25 08:14:41;;;;;;;9.00;5.50;;;;;;;28.24;14.82;94601.44;5017925;28;20139;-43
2021/04/25 08:17:08;;;;;;;6.15;5.10;;;;;;;28.50;14.45;94596.66;5016078;28;20058;-42
2021/04/25 08:19:35;;;;;;;9.75;5.03;;;;;;;27.58;15.03;94587.88;5017069;28;20042;-50
2021/04/25 08:22:02;;;;;;;9.45;4.88;;;;;;;28.50;14.63;94591.28;5016949;28;20479;-51
2021/04/25 08:24:29;;;;;;;6.70;4.97;;;;;;;28.33;15.10;94582.19;5016874;28;20046;-51
2021/04/25 08:26:56;;;;;;;7.25;5.32;;;;;;;28.57;15.26;94588.53;5016689;28;20053;-43
2021/04/25 08:29:30;;;;;;;6.70;4.90;;;;;;;28.56;14.77;94584.34;5034910;28;20128;-56
2021/04/25 08:32:01;;;;;;;9.45;5.47;;;;;;;29.41;14.08;94588.22;5036462;28;20048;-48
2021/04/25 08:34:33;;;;;;;6.55;5.15;;;;;;;29.03;13.71;94584.75;5036463;28;20045;-45
2021/04/25 08:37:00;;;;;;;8.38;5.47;;;;;;;28.63;14.38;94583.53;5035850;28;20045;-53
2021/04/25 08:39:27;;;;;;;10.98;5.38;;;;;;;28.98;14.79;94571.72;5036037;28;20045;-46
2021/04/25 08:41:55;;;;;;;7.82;5.18;;;;;;;29.84;14.42;94583.13;5020772;28;20364;-56
2021/04/25 08:44:24;;;;;;;10.23;5.15;;;;;;;30.48;13.90;94568.81;5016474;28;20437;-52
2021/04/25 08:46:52;;;;;;;7.70;5.47;;;;;;;28.66;14.75;94575.44;5015461;28;20046;-47
2021/04/25 08:49:25;;;;;;;10.35;5.78;;;;;;;29.43;15.09;94573.19;5016158;28;20061;-47
2021/04/25 08:51:53;;;;;;;8.23;5.57;;;;;;;29.32;14.54;94579.84;5016349;28;20076;-50
2021/04/25 08:54:31;;;;;;;8.85;6.03;;;;;;;30.04;13.41;94583.28;5016329;28;20065;-51
2021/04/25 08:56:58;;;;;;;8.15;5.40;;;;;;;28.72;15.29;94565.78;5016119;28;20084;-44
2021/04/25 08:59:25;;;;;;;7.22;5.25;;;;;;;30.66;14.38;94574.69;5016159;28;20053;-46
2021/04/25 09:01:53;;;;;;;8.32;4.68;;;;;;;28.95;14.47;94567.16;5000999;28;20337;-47
2021/04/25 09:04:20;;;;;;;7.38;4.68;;;;;;;28.88;14.31;94557.19;5028004;28;20052;-45
2021/04/25 09:07:06;;;;;;;6.43;4.18;;;;;;;29.07;14.41;94553.19;5035702;28;20050;-48
2021/04/25 09:09:55;;;;;;;6.03;4.63;;;;;;;28.76;14.93;94550.38;5035535;28;20041;-46
2021/04/25 09:12:35;;;;;;;6.43;4.43;;;;;;;28.85;14.25;94553.38;5022660;28;20058;-46
2021/04/25 09:15:05;;;;;;;9.02;4.05;;;;;;;29.15;14.65;94543.88;5020296;28;20072;-45
2021/04/25 09:17:54;;;;;;;5.85;3.92;;;;;;;29.61;13.62;94551.47;5015202;28;20050;-46
2021/04/25 09:20:33;;;;;;;4.35;3.58;;;;;;;29.15;14.19;94544.66;5015849;28;20053;-45
2021/04/25 09:23:01;;;;;;;7.25;3.72;;;;;;;29.51;13.77;94533.50;5025782;28;20049;-46
2021/04/25 09:25:28;;;;;;;5.30;3.30;;;;;;;29.63;13.92;94529.50;5035379;28;20482;-44
2021/04/25 09:28:09;;;;;;;5.60;3.70;;;;;;;29.36;13.64;94532.88;5034991;28;20080;-45
2021/04/25 09:30:36;;;;;;;6.40;3.70;;;;;;;30.68;12.10;94525.72;5015722;28;20050;-45
2021/04/25 09:33:06;;;;;;;7.72;3.78;;;;;;;30.14;13.46;94523.06;5014554;28;20376;-47
2021/04/25 09:35:33;;;;;;;5.07;3.28;;;;;;;28.46;14.98;94515.28;5028533;28;20053;-44
2021/04/25 09:38:12;;;;;;;4.13;2.97;;;;;;;30.08;12.95;94516.63;5031979;28;20057;-43
2021/04/25 09:40:51;;;;;;;6.95;3.00;;;;;;;30.64;12.43;94535.81;5034735;28;20056;-44
2021/04/25 09:43:39;;;;;;;;;;;;;;;30.21;11.55;94517.59;5035758;28;20049;-46
2021/04/25 09:46:07;;;;;;;4.82;2.90;;;;;;;29.85;11.92;94517.28;5025543;28;20225;-46
2021/04/25 09:48:35;;;;;;;4.28;3.10;;;;;;;30.44;11.80;94506.03;4998247;28;20365;-53
2021/04/25 09:51:08;;;;;;;4.00;3.10;;;;;;;29.84;11.67;94504.22;5014767;28;20046;-43
2021/04/25 09:53:37;;;;;;;6.43;2.80;;;;;;;30.81;10.89;94488.13;5015523;28;20045;-45
2021/04/25 09:56:05;;;;;;;35.33;17.40;;;;;;;29.38;10.72;94498.22;5015222;28;20057;-44
2021/04/25 09:58:32;;;;;;;13.90;8.48;;;;;;;28.62;12.26;94488.63;5015411;28;20053;-41
2021/04/25 10:00:59;;;;;;;29.42;16.42;;;;;;;29.35;11.39;94477.50;5015263;28;20046;-44
2021/04/25 10:03:37;;;;;;;6.60;4.10;;;;;;;29.81;10.98;94488.88;5015370;28;20056;-57
2021/04/25 10:06:06;;;;;;;9.32;4.68;;;;;;;31.88;11.37;94468.66;5015271;28;20038;-45
2021/04/25 10:08:34;;;;;;;7.75;4.30;;;;;;;30.79;11.54;94477.00;5017148;28;20068;-45
2021/04/25 10:11:06;;;;;;;4.68;3.40;;;;;;;29.83;12.03;94463.03;5034666;28;20041;-43
2021/04/25 10:13:44;;;;;;;8.68;4.00;;;;;;;30.15;13.42;94456.44;5016282;28;20045;-43
2021/04/25 10:16:15;;;;;;;5.57;3.17;;;;;;;30.80;11.25;94457.69;5014918;28;20049;-49
2021/04/25 10:18:43;;;;;;;5.93;3.08;;;;;;;29.98;11.86;94447.44;5015367;28;20046;-46
2021/04/25 10:21:10;;;;;;;4.95;2.80;;;;;;;29.36;10.71;94448.63;5015173;28;20045;-48
2021/04/25 10:23:38;;;;;;;4.15;2.58;;;;;;;31.05;9.78;94445.66;5015280;28;20057;-45
2021/04/25 10:26:13;;;;;;;7.82;3.47;;;;;;;29.75;11.46;94448.94;5015483;28;20041;-43
2021/04/25 10:28:43;;;;;;;8.43;3.58;;;;;;;31.18;10.16;94441.19;5019072;28;20057;-44
2021/04/25 10:31:19;;;;;;;5.03;3.08;;;;;;;29.22;11.67;94441.53;5017579;28;20376;-43
2021/04/25 10:34:05;;;;;;;5.00;3.10;;;;;;;29.49;11.54;94438.13;5019207;28;20052;-43
2021/04/25 10:36:55;;;;;;;13.50;5.88;;;;;;;30.97;15.95;94434.25;5018699;28;20049;-48
2021/04/25 10:39:50;;;;;;;11.82;5.60;;;;;;;31.90;14.18;94431.16;5026529;28;20045;-42
2021/04/25 10:42:19;;;;;;;6.38;3.83;;;;;;;31.92;11.39;94428.03;5018865;28;20058;-45
2021/04/25 10:45:05;;;;;;;6.40;3.05;;;;;;;29.49;11.15;94427.38;5018570;28;20058;-46
2021/04/25 10:47:34;;;;;;;4.28;2.85;;;;;;;29.68;12.03;94424.78;5018946;28;20057;-45
2021/04/25 10:50:13;;;;;;;8.10;4.05;;;;;;;29.64;12.58;94434.06;5018602;28;20456;-46
2021/04/25 10:52:43;;;;;;;5.90;3.03;;;;;;;29.83;11.77;94429.97;5018654;28;20452;-47
2021/04/25 10:55:13;;;;;;;5.50;3.30;;;;;;;29.56;12.07;94414.56;5018293;28;20057;-46
2021/04/25 10:57:56;;;;;;;4.80;3.05;;;;;;;29.15;12.89;94418.16;5018403;28;20057;-46
2021/04/25 11:00:33;;;;;;;4.75;3.33;;;;;;;29.71;13.67;94412.44;5018489;28;20084;-46
2021/04/25 11:03:19;;;;;;;4.57;3.20;;;;;;;28.90;13.07;94420.38;5018286;28;20046;-48
2021/04/25 11:05:48;;;;;;;4.97;3.03;;;;;;;28.98;13.38;94418.34;5018316;28;20041;-46
2021/04/25 11:08:18;;;;;;;4.78;3.10;;;;;;;29.31;13.13;94420.25;5018308;28;20053;-46
2021/04/25 11:11:05;;;;;;;3.92;2.92;;;;;;;28.86;12.18;94415.00;5037975;28;20048;-46
2021/04/25 11:13:45;;;;;;;7.88;3.13;;;;;;;30.20;10.24;94416.31;5021725;28;20049;-46
2021/04/25 11:16:20;;;;;;;5.85;3.00;;;;;;;30.62;10.02;94419.47;5017942;28;20057;-45
2021/04/25 11:19:09;;;;;;;6.43;2.60;;;;;;;29.60;11.15;94417.19;5018444;28;20054;-44
2021/04/25 11:21:53;;;;;;;4.00;2.70;;;;;;;27.81;12.54;94412.06;5018127;28;20345;-45
2021/04/25 11:24:23;;;;;;;6.20;2.78;;;;;;;28.38;12.42;94408.97;5018068;28;20050;-45
2021/04/25 11:26:52;;;;;;;5.22;3.03;;;;;;;28.36;12.91;94408.59;5018071;28;20038;-48
2021/04/25 11:29:28;;;;;;;5.63;3.28;;;;;;;28.63;13.05;94406.81;5017970;28;20117;-44
2021/04/25 11:32:00;;;;;;;5.32;3.33;;;;;;;28.18;13.03;94400.66;5017870;28;20049;-45
2021/04/25 11:34:33;;;;;;;5.35;2.70;;;;;;;29.16;10.83;94411.59;5017770;28;20049;-45